createdAt,value
2023-01-27T00:01:07.230Z,101102.53
2023-01-27T00:06:06.637Z,101102.22
2023-01-27T00:11:21.813Z,101104.84
2023-01-27T00:16:18.206Z,101106.56
2023-01-27T00:21:33.218Z,101108.19
2023-01-27T00:26:29.664Z,101100.28
2023-01-27T00:31:44.853Z,101102.75
2023-01-27T00:36:42.357Z,101100.06
2023-01-27T00:41:39.908Z,101101.75
2023-01-27T00:46:36.262Z,101101.50
2023-01-27T00:51:32.595Z,101094.44
2023-01-27T00:56:29.776Z,101083.06
2023-01-27T01:01:26.805Z,101085.69
2023-01-27T01:06:23.194Z,101093.50
2023-01-27T01:11:21.750Z,101075.25
2023-01-27T01:16:21.618Z,101095.22
2023-01-27T01:21:18.038Z,101075.88
2023-01-27T01:26:17.033Z,101070.72
2023-01-27T01:31:16.559Z,101079.34
2023-01-27T01:36:15.867Z,101091.38
2023-01-27T01:41:19.968Z,101086.94
2023-01-27T01:46:17.033Z,101081.72
2023-01-27T01:51:46.456Z,101073.84
2023-01-27T01:56:57.082Z,101066.00
2023-01-27T02:01:56.388Z,101081.69
2023-01-27T02:07:00.954Z,101070.22
2023-01-27T02:12:00.508Z,101070.97
2023-01-27T02:16:57.921Z,101066.47
2023-01-27T02:21:56.550Z,101058.63
2023-01-27T02:26:52.958Z,101075.25
2023-01-27T02:31:49.360Z,101071.72
2023-01-27T02:36:50.283Z,101071.63
2023-01-27T02:41:50.547Z,101066.31
2023-01-27T02:46:47.021Z,101069.81
2023-01-27T02:51:43.612Z,101080.25
2023-01-27T02:56:40.038Z,101080.22
2023-01-27T03:01:36.540Z,101088.66
2023-01-27T03:06:32.909Z,101085.16
2023-01-27T03:11:48.085Z,101086.06
2023-01-27T03:17:03.080Z,101096.53
2023-01-27T03:22:01.785Z,101086.72
2023-01-27T03:26:58.370Z,101089.41
2023-01-27T03:31:55.138Z,101097.28
2023-01-27T03:37:10.828Z,101097.06
2023-01-27T03:42:26.140Z,101098.97
2023-01-27T03:47:24.068Z,101103.41
2023-01-27T03:52:20.490Z,101102.41
2023-01-27T03:57:17.527Z,101106.97
2023-01-27T04:02:32.227Z,101111.31
2023-01-27T04:07:28.692Z,101119.94
2023-01-27T04:12:25.444Z,101118.28
2023-01-27T04:17:22.117Z,101117.28
2023-01-27T04:22:18.498Z,101123.47
2023-01-27T04:27:20.183Z,101134.03
2023-01-27T04:32:16.554Z,101148.72
2023-01-27T04:37:12.907Z,101149.47
2023-01-27T04:42:09.374Z,101150.31
2023-01-27T04:47:05.727Z,101162.47
2023-01-27T04:52:02.099Z,101161.56
2023-01-27T04:57:00.863Z,101171.81
2023-01-27T05:01:57.310Z,101174.59
2023-01-27T05:06:54.564Z,101177.19
2023-01-27T05:11:50.915Z,101183.19
2023-01-27T05:16:47.300Z,101180.59
2023-01-27T05:21:44.419Z,101181.50
2023-01-27T05:26:40.920Z,101184.91
2023-01-27T05:31:37.493Z,101184.72
2023-01-27T05:36:33.990Z,101190.91
2023-01-27T05:41:31.367Z,101196.06
2023-01-27T05:46:30.132Z,101198.41
2023-01-27T05:51:29.880Z,101202.94
2023-01-27T05:56:26.677Z,101201.94
2023-01-27T06:01:25.709Z,101201.84
2023-01-27T06:06:24.541Z,101204.44
2023-01-27T06:11:22.174Z,101213.16
2023-01-27T06:16:20.604Z,101220.22
2023-01-27T06:21:17.812Z,101229.75
2023-01-27T06:26:16.719Z,101231.44
2023-01-27T06:31:16.399Z,101239.31
2023-01-27T06:36:16.587Z,101243.59
2023-01-27T06:41:13.647Z,101245.19
2023-01-27T06:46:10.394Z,101242.56
2023-01-27T06:51:07.022Z,101248.56
2023-01-27T06:56:03.459Z,101252.00
2023-01-27T07:01:00.262Z,101256.47
2023-01-27T07:05:56.694Z,101272.25
2023-01-27T07:10:53.078Z,101273.13
2023-01-27T07:15:54.539Z,101284.28
2023-01-27T07:20:51.006Z,101279.03
2023-01-27T07:25:47.579Z,101285.13
2023-01-27T07:30:44.150Z,101287.63
2023-01-27T07:35:42.505Z,101300.06
2023-01-27T07:40:39.005Z,101294.56
2023-01-27T07:45:35.475Z,101301.78
2023-01-27T07:50:32.563Z,101304.38
2023-01-27T07:55:30.021Z,101306.94
2023-01-27T08:00:26.536Z,101313.06
2023-01-27T08:05:23.415Z,101315.75
2023-01-27T08:10:19.967Z,101325.06
2023-01-27T08:15:18.996Z,101327.41
2023-01-27T08:20:16.076Z,101322.25
2023-01-27T08:25:12.499Z,101328.59
2023-01-27T08:30:09.569Z,101326.78
2023-01-27T08:35:06.389Z,101338.03
2023-01-27T08:40:03.269Z,101337.22
2023-01-27T08:45:00.479Z,101332.75
2023-01-27T08:49:57.320Z,101346.81
2023-01-27T08:54:53.683Z,101344.97
2023-01-27T08:59:50.013Z,101357.22
2023-01-27T09:04:47.010Z,101358.34
2023-01-27T09:09:46.630Z,101364.38
2023-01-27T09:14:43.076Z,101363.75
2023-01-27T09:19:39.449Z,101359.44
2023-01-27T09:24:35.791Z,101377.16
2023-01-27T09:29:32.224Z,101370.97
2023-01-27T09:34:28.941Z,101381.56
2023-01-27T09:39:26.802Z,101357.81
2023-01-27T09:44:23.216Z,101369.50
2023-01-27T09:49:32.919Z,101376.72
2023-01-27T09:55:03.527Z,101377.66
2023-01-27T10:00:28.111Z,101372.44
2023-01-27T10:05:55.728Z,101346.59
2023-01-27T10:11:18.925Z,101342.84
2023-01-27T10:16:43.292Z,101337.47
2023-01-27T10:21:45.662Z,101333.63
2023-01-27T10:26:47.177Z,101323.66
2023-01-27T10:31:54.404Z,101312.94
2023-01-27T10:37:29.130Z,101308.72
2023-01-27T10:42:38.928Z,101308.88
2023-01-27T10:47:59.875Z,101303.03
2023-01-27T10:53:23.604Z,101314.75
2023-01-27T10:58:40.250Z,101313.22
2023-01-27T11:03:56.305Z,101322.63
2023-01-27T11:09:02.058Z,101308.31
2023-01-27T11:14:04.665Z,101311.47
2023-01-27T11:19:30.361Z,101306.19
2023-01-27T11:24:36.174Z,101312.25
2023-01-27T11:29:40.367Z,101317.47
2023-01-27T11:34:46.360Z,101305.34
2023-01-27T11:39:42.888Z,101305.50
2023-01-27T11:44:41.241Z,101308.47
2023-01-27T11:49:44.300Z,101301.88
2023-01-27T11:54:46.991Z,101296.16
2023-01-27T11:59:43.511Z,101290.38
2023-01-27T12:05:01.305Z,101303.03
2023-01-27T12:09:57.706Z,101296.28
2023-01-27T12:14:58.715Z,101291.88
2023-01-27T12:19:59.320Z,101283.81
2023-01-27T12:25:00.604Z,101292.19
2023-01-27T12:30:02.414Z,101285.78
2023-01-27T12:34:58.932Z,101290.41
2023-01-27T12:40:01.590Z,101289.16
2023-01-27T12:44:59.589Z,101284.31
2023-01-27T12:50:22.970Z,101279.91
2023-01-27T12:55:31.611Z,101270.81
2023-01-27T13:00:29.389Z,101261.44
2023-01-27T13:05:25.919Z,101261.22
2023-01-27T13:10:25.953Z,101256.41
2023-01-27T13:15:25.013Z,101254.44
2023-01-27T13:20:44.912Z,101260.84
2023-01-27T13:25:44.483Z,101265.84
2023-01-27T13:30:47.077Z,101272.59
2023-01-27T13:35:54.180Z,101267.19
2023-01-27T13:40:50.740Z,101268.81
2023-01-27T13:46:14.412Z,101270.13
2023-01-27T13:51:18.108Z,101283.66
2023-01-27T13:56:23.722Z,101295.09
2023-01-27T14:01:35.448Z,101280.59
2023-01-27T14:06:56.810Z,101288.22
2023-01-27T14:12:08.592Z,101285.69
2023-01-27T14:17:26.357Z,101293.81
2023-01-27T14:22:36.644Z,101292.94
2023-01-27T14:27:40.159Z,101294.66
2023-01-27T14:32:46.271Z,101302.72
2023-01-27T14:38:04.865Z,101309.66
2023-01-27T14:43:39.480Z,101293.41
2023-01-27T14:49:13.298Z,101300.00
2023-01-27T14:54:12.691Z,101307.06
2023-01-27T14:59:39.775Z,101323.03
2023-01-27T15:04:44.941Z,101328.06
2023-01-27T15:09:59.894Z,101338.50
2023-01-27T15:15:33.308Z,101333.22
2023-01-27T15:20:30.438Z,101345.63
2023-01-27T15:25:36.816Z,101334.41
2023-01-27T15:30:37.994Z,101342.44
2023-01-27T15:35:37.834Z,101348.69
2023-01-27T15:40:59.580Z,101361.06
2023-01-27T15:45:56.773Z,101367.38
2023-01-27T15:51:04.627Z,101374.38
2023-01-27T15:56:02.823Z,101376.69
2023-01-27T16:01:01.946Z,101380.25
2023-01-27T16:06:09.511Z,101381.31
2023-01-27T16:11:40.545Z,101379.59
2023-01-27T16:16:37.741Z,101390.34
2023-01-27T16:21:50.835Z,101398.28
2023-01-27T16:27:06.169Z,101398.19
2023-01-27T16:32:06.428Z,101392.72
2023-01-27T16:37:32.357Z,101395.44
2023-01-27T16:42:40.754Z,101399.72
2023-01-27T16:47:48.180Z,101395.22
2023-01-27T16:52:45.549Z,101394.38
2023-01-27T16:57:45.596Z,101401.44
2023-01-27T17:02:42.394Z,101407.72
2023-01-27T17:07:38.907Z,101404.28
2023-01-27T17:12:40.194Z,101405.22
2023-01-27T17:17:38.819Z,101408.94
2023-01-27T17:22:43.688Z,101426.41
2023-01-27T17:27:43.748Z,101444.69
2023-01-27T17:32:48.302Z,101438.44
2023-01-27T17:37:45.097Z,101438.69
2023-01-27T17:42:43.073Z,101444.03
2023-01-27T17:47:43.931Z,101439.78
2023-01-27T17:52:52.153Z,101460.72
2023-01-27T17:57:50.297Z,101456.38
2023-01-27T18:02:58.214Z,101453.66
2023-01-27T18:07:54.773Z,101463.34
2023-01-27T18:12:51.542Z,101459.81
2023-01-27T18:18:01.658Z,101468.56
2023-01-27T18:22:58.275Z,101465.13
2023-01-27T18:27:55.863Z,101464.97
2023-01-27T18:33:03.478Z,101467.78
2023-01-27T18:38:18.804Z,101474.09
2023-01-27T18:43:15.186Z,101488.34
2023-01-27T18:48:16.344Z,101490.25
2023-01-27T18:53:15.573Z,101498.16
2023-01-27T18:58:12.841Z,101495.81
2023-01-27T19:03:16.950Z,101506.31
2023-01-27T19:08:15.810Z,101510.03
2023-01-27T19:13:14.274Z,101505.84
2023-01-27T19:18:32.280Z,101514.50
2023-01-27T19:23:29.420Z,101510.06
2023-01-27T19:28:38.572Z,101517.13
2023-01-27T19:33:37.215Z,101508.56
2023-01-27T19:38:33.566Z,101509.50
2023-01-27T19:43:30.142Z,101513.84
2023-01-27T19:48:26.527Z,101507.53
2023-01-27T19:53:23.057Z,101517.41
2023-01-27T19:58:22.859Z,101532.19
2023-01-27T20:03:19.316Z,101533.75
2023-01-27T20:08:19.098Z,101532.19
2023-01-27T20:13:18.354Z,101535.00
2023-01-27T20:18:16.909Z,101545.50
2023-01-27T20:23:16.978Z,101540.19
2023-01-27T20:28:13.396Z,101534.81
2023-01-27T20:33:10.270Z,101544.44
2023-01-27T20:38:07.056Z,101550.75
2023-01-27T20:43:03.663Z,101547.22
2023-01-27T20:48:00.036Z,101543.63
2023-01-27T20:52:56.407Z,101546.25
2023-01-27T20:57:52.898Z,101537.72
2023-01-27T21:02:49.591Z,101540.34
2023-01-27T21:07:46.077Z,101540.25
2023-01-27T21:12:42.523Z,101546.38
2023-01-27T21:17:39.005Z,101559.66
2023-01-27T21:22:35.469Z,101556.94
2023-01-27T21:27:31.948Z,101550.91
2023-01-27T21:32:28.792Z,101549.06
2023-01-27T21:37:25.505Z,101552.56
2023-01-27T21:42:40.656Z,101544.88
2023-01-27T21:47:37.130Z,101536.94
2023-01-27T21:52:43.938Z,101548.47
2023-01-27T21:57:40.525Z,101538.94
2023-01-27T22:02:37.719Z,101540.81
2023-01-27T22:07:38.147Z,101532.22
2023-01-27T22:12:34.927Z,101542.81
2023-01-27T22:17:31.409Z,101542.94
2023-01-27T22:22:27.815Z,101540.34
2023-01-27T22:27:24.612Z,101539.31
2023-01-27T22:32:21.145Z,101533.44
2023-01-27T22:37:17.528Z,101538.06
2023-01-27T22:42:13.910Z,101532.03
2023-01-27T22:47:10.309Z,101532.19
2023-01-27T22:52:06.698Z,101521.16
2023-01-27T22:57:03.337Z,101509.97
2023-01-27T23:01:59.755Z,101509.09
2023-01-27T23:06:56.133Z,101519.56
2023-01-27T23:11:52.604Z,101524.75
2023-01-27T23:16:53.021Z,101526.56
2023-01-27T23:21:50.566Z,101527.59
2023-01-27T23:26:47.531Z,101525.03
2023-01-27T23:31:44.497Z,101532.75
2023-01-27T23:36:40.968Z,101539.00
2023-01-27T23:41:37.293Z,101545.91
2023-01-27T23:46:33.663Z,101540.69
2023-01-27T23:51:30.275Z,101542.50
2023-01-27T23:56:26.791Z,101542.47
